SRC3699 SKCG-SKBO
Flight info
| Callsign | SRC3699 |
|---|---|
| Flight time | 1h 11m |
| Altitude | 33000 |
| Route | ESKAB2A AKPEK UQ121 ISVAT ISVAT4E |
| Aircraft | C750/M-SBDE3FGHRWXY/S |
Departure
| Time | 2026-04-25 23:36 |
|---|---|
| Airport | Rafael Nuñez International Airport (SKCG) |
Arrival
| Time | 2026-04-26 00:47 |
|---|---|
| Airport | El Dorado International Airport (SKBO) |
| Time | Latitude | Longitude | Altitude | Speed | Heading |
|---|---|---|---|---|---|
| 2026-04-25 23:05 | 10.44555 | -75.51092 | 16 ft | 0 kts | 272° |
| 2026-04-25 23:17 | 10.44555 | -75.51093 | 16 ft | 0 kts | 272° |
| 2026-04-25 23:18 | 10.44555 | -75.51083 | 16 ft | 2 kts | 272° |
| 2026-04-25 23:18 | 10.44549 | -75.51070 | 16 ft | 2 kts | 317° |
| 2026-04-25 23:18 | 10.44536 | -75.51066 | 16 ft | 1 kts | 0° |
| 2026-04-25 23:18 | 10.44533 | -75.51066 | 16 ft | 0 kts | 3° |
| 2026-04-25 23:22 | 10.44541 | -75.51065 | 16 ft | 2 kts | 2° |
| 2026-04-25 23:23 | 10.44627 | -75.51065 | 16 ft | 7 kts | 335° |
| 2026-04-25 23:23 | 10.44664 | -75.51104 | 16 ft | 7 kts | 282° |
| 2026-04-25 23:23 | 10.44666 | -75.51165 | 16 ft | 10 kts | 270° |
| 2026-04-25 23:23 | 10.44666 | -75.51256 | 17 ft | 14 kts | 244° |
| 2026-04-25 23:24 | 10.44561 | -75.51273 | 18 ft | 17 kts | 180° |
| 2026-04-25 23:24 | 10.44425 | -75.51281 | 19 ft | 21 kts | 182° |
| 2026-04-25 23:24 | 10.44257 | -75.51288 | 19 ft | 25 kts | 182° |
| 2026-04-25 23:24 | 10.44064 | -75.51296 | 19 ft | 29 kts | 182° |
| 2026-04-25 23:25 | 10.43841 | -75.51305 | 19 ft | 33 kts | 182° |
| 2026-04-25 23:25 | 10.43592 | -75.51316 | 16 ft | 37 kts | 183° |
| 2026-04-25 23:25 | 10.43317 | -75.51331 | 16 ft | 38 kts | 184° |
| 2026-04-25 23:25 | 10.43176 | -75.51261 | 16 ft | 15 kts | 135° |
| 2026-04-25 23:26 | 10.43090 | -75.51234 | 16 ft | 12 kts | 199° |
| 2026-04-25 23:26 | 10.43070 | -75.51251 | 15 ft | 0 kts | 250° |
| 2026-04-25 23:34 | 10.43068 | -75.51258 | 15 ft | 1 kts | 250° |
| 2026-04-25 23:34 | 10.43063 | -75.51272 | 15 ft | 2 kts | 258° |
| 2026-04-25 23:34 | 10.43065 | -75.51287 | 15 ft | 2 kts | 281° |
| 2026-04-25 23:35 | 10.43070 | -75.51310 | 15 ft | 4 kts | 282° |
| 2026-04-25 23:35 | 10.43099 | -75.51335 | 15 ft | 7 kts | 360° |
| 2026-04-25 23:35 | 10.43290 | -75.51328 | 16 ft | 65 kts | 2° |
| 2026-04-25 23:35 | 10.44027 | -75.51299 | 19 ft | 137 kts | 1° |
| 2026-04-25 23:36 | 10.45117 | -75.51241 | 208 ft | 168 kts | 4° |
| 2026-04-25 23:36 | 10.46304 | -75.51093 | 689 ft | 181 kts | 2° |
| 2026-04-25 23:36 | 10.47628 | -75.51123 | 1270 ft | 191 kts | 356° |
| 2026-04-25 23:36 | 10.48982 | -75.51098 | 1871 ft | 201 kts | 1° |
| 2026-04-25 23:37 | 10.50208 | -75.51165 | 2314 ft | 204 kts | 341° |
| 2026-04-25 23:37 | 10.51196 | -75.52007 | 2784 ft | 203 kts | 298° |
| 2026-04-25 23:37 | 10.51310 | -75.53391 | 3311 ft | 203 kts | 256° |
| 2026-04-25 23:37 | 10.50725 | -75.54672 | 3843 ft | 201 kts | 236° |
| 2026-04-25 23:38 | 10.49835 | -75.55766 | 4365 ft | 200 kts | 227° |
| 2026-04-25 23:38 | 10.48865 | -75.56757 | 4868 ft | 198 kts | 224° |
| 2026-04-25 23:38 | 10.47856 | -75.57717 | 5322 ft | 203 kts | 223° |
| 2026-04-25 23:38 | 10.46796 | -75.58701 | 5840 ft | 209 kts | 222° |
| 2026-04-25 23:39 | 10.45711 | -75.59701 | 6355 ft | 215 kts | 222° |
| 2026-04-25 23:39 | 10.44566 | -75.60753 | 6885 ft | 223 kts | 221° |
| 2026-04-25 23:39 | 10.43348 | -75.61718 | 7410 ft | 229 kts | 202° |
| 2026-04-25 23:39 | 10.41753 | -75.61983 | 8017 ft | 232 kts | 182° |
| 2026-04-25 23:40 | 10.40136 | -75.62097 | 8562 ft | 237 kts | 185° |
| 2026-04-25 23:40 | 10.38471 | -75.62235 | 9102 ft | 243 kts | 186° |
| 2026-04-25 23:40 | 10.36764 | -75.62374 | 9636 ft | 248 kts | 186° |
| 2026-04-25 23:40 | 10.35040 | -75.62518 | 10166 ft | 252 kts | 186° |
| 2026-04-25 23:41 | 10.33281 | -75.62666 | 10701 ft | 256 kts | 185° |
| 2026-04-25 23:41 | 10.31471 | -75.62809 | 11243 ft | 260 kts | 186° |
| 2026-04-25 23:41 | 10.29657 | -75.62958 | 11769 ft | 263 kts | 186° |
| 2026-04-25 23:41 | 10.27825 | -75.63110 | 12294 ft | 265 kts | 186° |
| 2026-04-25 23:42 | 10.25971 | -75.63259 | 12816 ft | 268 kts | 186° |
| 2026-04-25 23:42 | 10.24097 | -75.63411 | 13342 ft | 270 kts | 186° |
| 2026-04-25 23:42 | 10.22201 | -75.63566 | 13869 ft | 271 kts | 186° |
| 2026-04-25 23:42 | 10.20325 | -75.63718 | 14387 ft | 272 kts | 185° |
| 2026-04-25 23:43 | 10.18426 | -75.63872 | 14907 ft | 273 kts | 186° |
| 2026-04-25 23:43 | 10.16504 | -75.64030 | 15428 ft | 274 kts | 186° |
| 2026-04-25 23:43 | 10.14610 | -75.64185 | 15933 ft | 274 kts | 185° |
| 2026-04-25 23:43 | 10.12704 | -75.64336 | 16442 ft | 273 kts | 186° |
| 2026-04-25 23:44 | 10.10809 | -75.64494 | 16955 ft | 272 kts | 186° |
| 2026-04-25 23:44 | 10.08912 | -75.64648 | 17464 ft | 271 kts | 185° |
| 2026-04-25 23:44 | 10.07028 | -75.64801 | 17970 ft | 270 kts | 185° |
| 2026-04-25 23:44 | 10.05147 | -75.64955 | 18361 ft | 273 kts | 185° |
| 2026-04-25 23:45 | 10.03245 | -75.65108 | 18667 ft | 280 kts | 185° |
| 2026-04-25 23:45 | 10.01261 | -75.65272 | 18990 ft | 286 kts | 185° |
| 2026-04-25 23:45 | 9.99268 | -75.65432 | 19303 ft | 291 kts | 185° |
| 2026-04-25 23:45 | 9.97223 | -75.65599 | 19620 ft | 296 kts | 185° |
| 2026-04-25 23:46 | 9.95141 | -75.65768 | 19933 ft | 301 kts | 184° |
| 2026-04-25 23:46 | 9.93026 | -75.65939 | 20244 ft | 306 kts | 184° |
| 2026-04-25 23:46 | 9.90870 | -75.66114 | 20559 ft | 310 kts | 184° |
| 2026-04-25 23:46 | 9.88698 | -75.66290 | 20867 ft | 314 kts | 184° |
| 2026-04-25 23:47 | 9.86498 | -75.66468 | 21178 ft | 318 kts | 184° |
| 2026-04-25 23:47 | 9.84261 | -75.66649 | 21485 ft | 321 kts | 185° |
| 2026-04-25 23:47 | 9.82031 | -75.66830 | 21792 ft | 324 kts | 185° |
| 2026-04-25 23:47 | 9.79774 | -75.67014 | 22098 ft | 327 kts | 185° |
| 2026-04-25 23:48 | 9.77476 | -75.67202 | 22409 ft | 330 kts | 184° |
| 2026-04-25 23:48 | 9.75182 | -75.67387 | 22719 ft | 332 kts | 184° |
| 2026-04-25 23:48 | 9.72870 | -75.67573 | 23038 ft | 334 kts | 185° |
| 2026-04-25 23:48 | 9.70538 | -75.67761 | 23354 ft | 336 kts | 185° |
| 2026-04-25 23:49 | 9.68169 | -75.67954 | 23678 ft | 337 kts | 185° |
| 2026-04-25 23:49 | 9.65826 | -75.68143 | 23994 ft | 339 kts | 185° |
| 2026-04-25 23:49 | 9.63456 | -75.68336 | 24316 ft | 340 kts | 185° |
| 2026-04-25 23:49 | 9.61099 | -75.68528 | 24631 ft | 341 kts | 185° |
| 2026-04-25 23:50 | 9.58723 | -75.68720 | 24954 ft | 342 kts | 185° |
| 2026-04-25 23:50 | 9.56350 | -75.68914 | 25272 ft | 342 kts | 186° |
| 2026-04-25 23:50 | 9.53969 | -75.69106 | 25588 ft | 343 kts | 185° |
| 2026-04-25 23:50 | 9.51585 | -75.69299 | 25910 ft | 343 kts | 186° |
| 2026-04-25 23:51 | 9.49206 | -75.69493 | 26229 ft | 343 kts | 186° |
| 2026-04-25 23:51 | 9.46816 | -75.69685 | 26546 ft | 343 kts | 186° |
| 2026-04-25 23:51 | 9.44424 | -75.69880 | 26865 ft | 343 kts | 186° |
| 2026-04-25 23:51 | 9.42031 | -75.70074 | 27185 ft | 342 kts | 186° |
| 2026-04-25 23:52 | 9.39643 | -75.70268 | 27503 ft | 342 kts | 186° |
| 2026-04-25 23:52 | 9.37286 | -75.70459 | 27816 ft | 341 kts | 186° |
| 2026-04-25 23:52 | 9.34904 | -75.70653 | 28132 ft | 340 kts | 186° |
| 2026-04-25 23:52 | 9.32555 | -75.70841 | 28447 ft | 340 kts | 186° |
| 2026-04-25 23:53 | 9.30188 | -75.71033 | 28769 ft | 339 kts | 186° |
| 2026-04-25 23:53 | 9.27841 | -75.71225 | 29094 ft | 338 kts | 186° |
| 2026-04-25 23:53 | 9.25487 | -75.71418 | 29422 ft | 336 kts | 186° |
| 2026-04-25 23:53 | 9.23145 | -75.71609 | 29753 ft | 335 kts | 185° |
| 2026-04-25 23:54 | 9.20826 | -75.71797 | 30081 ft | 333 kts | 185° |
| 2026-04-25 23:54 | 9.18518 | -75.71985 | 30407 ft | 332 kts | 185° |
| 2026-04-25 23:54 | 9.16208 | -75.72172 | 30734 ft | 330 kts | 184° |
| 2026-04-25 23:54 | 9.13897 | -75.72359 | 31065 ft | 328 kts | 184° |
| 2026-04-25 23:55 | 9.11623 | -75.72542 | 31388 ft | 326 kts | 184° |
| 2026-04-25 23:55 | 9.09380 | -75.72722 | 31707 ft | 324 kts | 184° |
| 2026-04-25 23:55 | 9.07127 | -75.72903 | 32031 ft | 321 kts | 184° |
| 2026-04-25 23:55 | 9.04901 | -75.73085 | 32355 ft | 319 kts | 183° |
| 2026-04-25 23:56 | 9.02673 | -75.73264 | 32675 ft | 316 kts | 183° |
| 2026-04-25 23:56 | 9.00466 | -75.73444 | 32844 ft | 319 kts | 183° |
| 2026-04-25 23:56 | 8.98222 | -75.73622 | 32864 ft | 326 kts | 183° |
| 2026-04-25 23:57 | 8.93562 | -75.73997 | 32867 ft | 341 kts | 183° |
| 2026-04-25 23:57 | 8.88737 | -75.74386 | 32867 ft | 355 kts | 183° |
| 2026-04-25 23:58 | 8.83703 | -75.74792 | 32878 ft | 367 kts | 183° |
| 2026-04-25 23:58 | 8.78502 | -75.75212 | 32887 ft | 378 kts | 183° |
| 2026-04-25 23:59 | 8.73167 | -75.75642 | 32886 ft | 388 kts | 183° |
| 2026-04-25 23:59 | 8.67690 | -75.76086 | 32892 ft | 397 kts | 183° |
| 2026-04-26 00:00 | 8.62129 | -75.76534 | 32890 ft | 405 kts | 183° |
| 2026-04-26 00:00 | 8.56426 | -75.76994 | 32893 ft | 412 kts | 183° |
| 2026-04-26 00:01 | 8.50650 | -75.77460 | 32891 ft | 419 kts | 183° |
| 2026-04-26 00:01 | 8.44793 | -75.77933 | 32897 ft | 424 kts | 183° |
| 2026-04-26 00:02 | 8.38863 | -75.78408 | 32904 ft | 428 kts | 183° |
| 2026-04-26 00:02 | 8.32834 | -75.78894 | 32904 ft | 432 kts | 184° |
| 2026-04-26 00:03 | 8.26824 | -75.79378 | 32909 ft | 436 kts | 183° |
| 2026-04-26 00:03 | 8.20729 | -75.79870 | 32916 ft | 438 kts | 184° |
| 2026-04-26 00:04 | 8.14618 | -75.80361 | 32922 ft | 441 kts | 184° |
| 2026-04-26 00:04 | 8.08495 | -75.80854 | 32935 ft | 443 kts | 183° |
| 2026-04-26 00:05 | 8.02318 | -75.81351 | 32946 ft | 444 kts | 184° |
| 2026-04-26 00:05 | 7.96122 | -75.81123 | 32996 ft | 442 kts | 167° |
| 2026-04-26 00:06 | 7.90057 | -75.79911 | 32945 ft | 445 kts | 168° |
| 2026-04-26 00:06 | 7.83966 | -75.78697 | 32952 ft | 446 kts | 168° |
| 2026-04-26 00:07 | 7.77820 | -75.77474 | 32958 ft | 447 kts | 168° |
| 2026-04-26 00:07 | 7.71678 | -75.76252 | 32971 ft | 448 kts | 168° |
| 2026-04-26 00:08 | 7.65521 | -75.75025 | 32986 ft | 449 kts | 168° |
| 2026-04-26 00:08 | 7.59356 | -75.73801 | 33035 ft | 449 kts | 168° |
| 2026-04-26 00:09 | 7.53198 | -75.72575 | 33062 ft | 449 kts | 167° |
| 2026-04-26 00:09 | 7.47002 | -75.71343 | 33071 ft | 450 kts | 168° |
| 2026-04-26 00:10 | 7.40848 | -75.70119 | 33090 ft | 450 kts | 168° |
| 2026-04-26 00:10 | 7.34641 | -75.68888 | 33106 ft | 451 kts | 167° |
| 2026-04-26 00:11 | 7.28484 | -75.67664 | 33125 ft | 451 kts | 167° |
| 2026-04-26 00:11 | 7.22297 | -75.66435 | 33147 ft | 451 kts | 167° |
| 2026-04-26 00:12 | 7.16129 | -75.65211 | 33155 ft | 452 kts | 167° |
| 2026-04-26 00:12 | 7.09912 | -75.63975 | 33193 ft | 451 kts | 167° |
| 2026-04-26 00:13 | 7.03724 | -75.62749 | 33230 ft | 451 kts | 167° |
| 2026-04-26 00:13 | 6.97534 | -75.61519 | 33240 ft | 452 kts | 168° |
| 2026-04-26 00:14 | 6.91371 | -75.60297 | 33278 ft | 451 kts | 167° |
| 2026-04-26 00:14 | 6.85165 | -75.59068 | 33329 ft | 451 kts | 167° |
| 2026-04-26 00:15 | 6.78966 | -75.57839 | 33354 ft | 451 kts | 168° |
| 2026-04-26 00:15 | 6.72750 | -75.56606 | 33371 ft | 451 kts | 167° |
| 2026-04-26 00:16 | 6.66537 | -75.55378 | 33344 ft | 452 kts | 167° |
| 2026-04-26 00:16 | 6.60323 | -75.54145 | 33325 ft | 452 kts | 167° |
| 2026-04-26 00:17 | 6.54127 | -75.52917 | 33293 ft | 454 kts | 168° |
| 2026-04-26 00:17 | 6.47884 | -75.51682 | 33280 ft | 454 kts | 167° |
| 2026-04-26 00:18 | 6.41671 | -75.50453 | 33270 ft | 455 kts | 167° |
| 2026-04-26 00:18 | 6.35402 | -75.49213 | 33266 ft | 455 kts | 167° |
| 2026-04-26 00:19 | 6.29116 | -75.47968 | 33263 ft | 455 kts | 167° |
| 2026-04-26 00:19 | 6.22878 | -75.46735 | 33269 ft | 455 kts | 167° |
| 2026-04-26 00:20 | 6.16663 | -75.45509 | 33267 ft | 455 kts | 167° |
| 2026-04-26 00:20 | 6.10386 | -75.44266 | 33269 ft | 456 kts | 167° |
| 2026-04-26 00:21 | 6.04127 | -75.43029 | 33271 ft | 456 kts | 167° |
| 2026-04-26 00:21 | 5.98045 | -75.41344 | 33254 ft | 453 kts | 148° |
| 2026-04-26 00:21 | 5.95618 | -75.39349 | 33302 ft | 451 kts | 133° |
| 2026-04-26 00:22 | 5.93429 | -75.37079 | 33292 ft | 451 kts | 134° |
| 2026-04-26 00:22 | 5.89022 | -75.32558 | 33305 ft | 452 kts | 134° |
| 2026-04-26 00:23 | 5.84607 | -75.28030 | 33317 ft | 453 kts | 134° |
| 2026-04-26 00:23 | 5.80179 | -75.23489 | 33323 ft | 453 kts | 134° |
| 2026-04-26 00:24 | 5.75760 | -75.18961 | 33286 ft | 455 kts | 134° |
| 2026-04-26 00:24 | 5.71286 | -75.14374 | 33237 ft | 457 kts | 134° |
| 2026-04-26 00:24 | 5.68859 | -75.12341 | 33167 ft | 459 kts | 149° |
| 2026-04-26 00:25 | 5.65917 | -75.11043 | 33222 ft | 458 kts | 157° |
| 2026-04-26 00:25 | 5.59995 | -75.08598 | 33158 ft | 460 kts | 157° |
| 2026-04-26 00:26 | 5.54051 | -75.06149 | 33127 ft | 461 kts | 157° |
| 2026-04-26 00:26 | 5.48082 | -75.03693 | 33103 ft | 461 kts | 157° |
| 2026-04-26 00:27 | 5.42119 | -75.01235 | 33088 ft | 462 kts | 156° |
| 2026-04-26 00:27 | 5.36174 | -74.98762 | 33076 ft | 461 kts | 156° |
| 2026-04-26 00:28 | 5.30224 | -74.96238 | 33057 ft | 462 kts | 156° |
| 2026-04-26 00:28 | 5.24292 | -74.93723 | 33054 ft | 462 kts | 156° |
| 2026-04-26 00:28 | 5.21465 | -74.92265 | 33003 ft | 461 kts | 143° |
| 2026-04-26 00:29 | 5.19236 | -74.89918 | 33044 ft | 458 kts | 123° |
| 2026-04-26 00:29 | 5.16077 | -74.84366 | 33026 ft | 458 kts | 120° |
| 2026-04-26 00:30 | 5.12893 | -74.78825 | 32976 ft | 458 kts | 120° |
| 2026-04-26 00:30 | 5.11322 | -74.76121 | 32638 ft | 448 kts | 120° |
| 2026-04-26 00:30 | 5.09751 | -74.73411 | 32221 ft | 441 kts | 120° |
| 2026-04-26 00:30 | 5.08226 | -74.70783 | 31820 ft | 433 kts | 120° |
| 2026-04-26 00:31 | 5.06724 | -74.68195 | 31175 ft | 425 kts | 120° |
| 2026-04-26 00:31 | 5.05255 | -74.65662 | 30469 ft | 411 kts | 120° |
| 2026-04-26 00:31 | 5.03839 | -74.63223 | 29770 ft | 399 kts | 120° |
| 2026-04-26 00:31 | 5.02475 | -74.60873 | 29089 ft | 389 kts | 120° |
| 2026-04-26 00:32 | 5.01128 | -74.58553 | 28409 ft | 379 kts | 120° |
| 2026-04-26 00:32 | 4.99820 | -74.56299 | 27746 ft | 371 kts | 120° |
| 2026-04-26 00:32 | 4.97278 | -74.51913 | 26431 ft | 358 kts | 119° |
| 2026-04-26 00:33 | 4.96051 | -74.49798 | 25786 ft | 352 kts | 119° |
| 2026-04-26 00:33 | 4.94830 | -74.47694 | 25135 ft | 347 kts | 119° |
| 2026-04-26 00:33 | 4.93612 | -74.45601 | 24482 ft | 342 kts | 118° |
| 2026-04-26 00:33 | 4.92417 | -74.43542 | 23832 ft | 338 kts | 118° |
| 2026-04-26 00:34 | 4.91249 | -74.41525 | 23191 ft | 335 kts | 120° |
| 2026-04-26 00:34 | 4.89871 | -74.39693 | 22569 ft | 332 kts | 127° |
| 2026-04-26 00:34 | 4.88466 | -74.37868 | 21957 ft | 329 kts | 126° |
| 2026-04-26 00:34 | 4.87326 | -74.35902 | 21326 ft | 323 kts | 104° |
| 2026-04-26 00:35 | 4.87251 | -74.33695 | 20761 ft | 313 kts | 74° |
| 2026-04-26 00:35 | 4.88237 | -74.31826 | 20207 ft | 307 kts | 45° |
| 2026-04-26 00:35 | 4.90005 | -74.30720 | 19639 ft | 301 kts | 15° |
| 2026-04-26 00:35 | 4.92070 | -74.30672 | 19061 ft | 298 kts | 345° |
| 2026-04-26 00:36 | 4.93840 | -74.31683 | 18490 ft | 295 kts | 315° |
| 2026-04-26 00:36 | 4.95159 | -74.33247 | 17925 ft | 294 kts | 309° |
| 2026-04-26 00:36 | 4.96430 | -74.34840 | 17320 ft | 293 kts | 309° |
| 2026-04-26 00:36 | 4.97692 | -74.36422 | 16694 ft | 292 kts | 309° |
| 2026-04-26 00:37 | 4.98971 | -74.38015 | 16082 ft | 291 kts | 309° |
| 2026-04-26 00:37 | 5.00233 | -74.39587 | 15547 ft | 287 kts | 309° |
| 2026-04-26 00:37 | 5.01485 | -74.41142 | 15229 ft | 286 kts | 309° |
| 2026-04-26 00:37 | 5.02731 | -74.42690 | 14922 ft | 290 kts | 309° |
| 2026-04-26 00:38 | 5.04008 | -74.44267 | 14579 ft | 289 kts | 309° |
| 2026-04-26 00:38 | 5.05270 | -74.45840 | 14270 ft | 288 kts | 306° |
| 2026-04-26 00:38 | 5.05980 | -74.47682 | 13917 ft | 287 kts | 274° |
| 2026-04-26 00:38 | 5.05566 | -74.49621 | 13612 ft | 287 kts | 242° |
| 2026-04-26 00:39 | 5.04204 | -74.51052 | 13349 ft | 287 kts | 212° |
| 2026-04-26 00:39 | 5.02288 | -74.51569 | 13064 ft | 288 kts | 179° |
| 2026-04-26 00:39 | 5.00409 | -74.50999 | 12783 ft | 288 kts | 146° |
| 2026-04-26 00:39 | 4.99002 | -74.49577 | 12546 ft | 285 kts | 128° |
| 2026-04-26 00:40 | 4.97777 | -74.48027 | 12302 ft | 285 kts | 128° |
| 2026-04-26 00:40 | 4.96536 | -74.46458 | 12005 ft | 285 kts | 128° |
| 2026-04-26 00:40 | 4.95303 | -74.44910 | 11714 ft | 286 kts | 128° |
| 2026-04-26 00:40 | 4.94006 | -74.43411 | 11456 ft | 283 kts | 131° |
| 2026-04-26 00:41 | 4.92713 | -74.41952 | 11477 ft | 272 kts | 131° |
| 2026-04-26 00:41 | 4.91469 | -74.40547 | 11483 ft | 267 kts | 131° |
| 2026-04-26 00:41 | 4.90233 | -74.39158 | 11494 ft | 266 kts | 131° |
| 2026-04-26 00:41 | 4.88994 | -74.37755 | 11540 ft | 270 kts | 131° |
| 2026-04-26 00:42 | 4.87755 | -74.36336 | 11561 ft | 273 kts | 131° |
| 2026-04-26 00:42 | 4.86500 | -74.34896 | 11603 ft | 276 kts | 131° |
| 2026-04-26 00:42 | 4.85237 | -74.33431 | 11645 ft | 279 kts | 130° |
| 2026-04-26 00:42 | 4.84023 | -74.31860 | 11683 ft | 281 kts | 127° |
| 2026-04-26 00:43 | 4.82843 | -74.30302 | 11698 ft | 283 kts | 127° |
| 2026-04-26 00:43 | 4.81641 | -74.28719 | 11469 ft | 283 kts | 127° |
| 2026-04-26 00:43 | 4.80453 | -74.27157 | 11175 ft | 279 kts | 127° |
| 2026-04-26 00:43 | 4.79292 | -74.25632 | 10827 ft | 269 kts | 127° |
| 2026-04-26 00:44 | 4.78180 | -74.24169 | 10466 ft | 258 kts | 127° |
| 2026-04-26 00:44 | 4.77126 | -74.22787 | 10116 ft | 233 kts | 127° |
| 2026-04-26 00:44 | 4.76199 | -74.21565 | 9811 ft | 207 kts | 128° |
| 2026-04-26 00:44 | 4.75379 | -74.20491 | 9590 ft | 180 kts | 127° |
| 2026-04-26 00:45 | 4.74646 | -74.19531 | 9355 ft | 167 kts | 128° |
| 2026-04-26 00:45 | 4.73952 | -74.18617 | 9155 ft | 161 kts | 128° |
| 2026-04-26 00:45 | 4.73270 | -74.17732 | 8935 ft | 156 kts | 128° |
| 2026-04-26 00:45 | 4.72604 | -74.16872 | 8750 ft | 153 kts | 127° |
| 2026-04-26 00:46 | 4.71971 | -74.16025 | 8573 ft | 153 kts | 127° |
| 2026-04-26 00:46 | 4.71316 | -74.15173 | 8412 ft | 153 kts | 127° |
| 2026-04-26 00:46 | 4.70687 | -74.14346 | 8370 ft | 141 kts | 124° |
| 2026-04-26 00:46 | 4.70143 | -74.13612 | 8363 ft | 111 kts | 129° |
| 2026-04-26 00:47 | 4.69824 | -74.13206 | 8364 ft | 53 kts | 128° |
| 2026-04-26 00:47 | 4.69609 | -74.12920 | 8366 ft | 48 kts | 127° |
| 2026-04-26 00:47 | 4.69417 | -74.12669 | 8368 ft | 41 kts | 127° |
| 2026-04-26 00:47 | 4.69304 | -74.12518 | 8368 ft | 13 kts | 134° |
| 2026-04-26 00:48 | 4.69232 | -74.12527 | 8369 ft | 12 kts | 246° |
| 2026-04-26 00:48 | 4.69210 | -74.12603 | 8370 ft | 10 kts | 255° |
| 2026-04-26 00:48 | 4.69193 | -74.12671 | 8371 ft | 9 kts | 254° |
| 2026-04-26 00:48 | 4.69205 | -74.12720 | 8370 ft | 7 kts | 305° |
| 2026-04-26 00:49 | 4.69244 | -74.12767 | 8370 ft | 10 kts | 309° |
| 2026-04-26 00:49 | 4.69302 | -74.12845 | 8368 ft | 16 kts | 307° |
| 2026-04-26 00:49 | 4.69386 | -74.12956 | 8368 ft | 23 kts | 307° |
| 2026-04-26 00:49 | 4.69496 | -74.13101 | 8367 ft | 28 kts | 307° |
| 2026-04-26 00:50 | 4.69618 | -74.13262 | 8367 ft | 28 kts | 307° |
| 2026-04-26 00:50 | 4.69735 | -74.13417 | 8366 ft | 27 kts | 307° |
| 2026-04-26 00:50 | 4.69849 | -74.13567 | 8364 ft | 26 kts | 308° |
| 2026-04-26 00:50 | 4.69958 | -74.13711 | 8365 ft | 24 kts | 307° |
| 2026-04-26 00:51 | 4.70057 | -74.13844 | 8366 ft | 22 kts | 307° |
| 2026-04-26 00:51 | 4.70147 | -74.13962 | 8368 ft | 20 kts | 307° |
| 2026-04-26 00:51 | 4.70229 | -74.14071 | 8368 ft | 19 kts | 307° |
| 2026-04-26 00:51 | 4.70312 | -74.14180 | 8366 ft | 19 kts | 307° |
| 2026-04-26 00:52 | 4.70393 | -74.14285 | 8365 ft | 18 kts | 307° |
| 2026-04-26 00:52 | 4.70469 | -74.14387 | 8365 ft | 17 kts | 307° |
| 2026-04-26 00:52 | 4.70543 | -74.14484 | 8364 ft | 17 kts | 307° |
| 2026-04-26 00:52 | 4.70615 | -74.14580 | 8364 ft | 17 kts | 307° |
| 2026-04-26 00:53 | 4.70691 | -74.14680 | 8364 ft | 18 kts | 307° |
| 2026-04-26 00:53 | 4.70774 | -74.14794 | 8364 ft | 21 kts | 308° |
| 2026-04-26 00:53 | 4.70875 | -74.14922 | 8364 ft | 24 kts | 307° |
| 2026-04-26 00:53 | 4.70976 | -74.15056 | 8364 ft | 23 kts | 306° |
| 2026-04-26 00:54 | 4.71073 | -74.15185 | 8362 ft | 23 kts | 308° |
| 2026-04-26 00:54 | 4.71138 | -74.15283 | 8358 ft | 9 kts | 249° |
| 2026-04-26 00:54 | 4.71088 | -74.15325 | 8358 ft | 8 kts | 217° |
| 2026-04-26 00:54 | 4.71045 | -74.15321 | 8359 ft | 6 kts | 105° |
| 2026-04-26 00:55 | 4.71039 | -74.15303 | 8360 ft | 0 kts | 239° |
| 2026-04-26 00:55 | 4.71039 | -74.15304 | 8360 ft | 0 kts | 258° |